Time;durP1;ratioP1;P1;durP2;ratioP2;P2;SDS_P1;SDS_P2;PMS_P1;PMS_P2;Temp;Humidity;BMP_temperature;BMP_pressure;BME280_temperature;BME280_humidity;BME280_pressure;Samples;Min_cycle;Max_cycle;Signal;HPM_P1;HPM_P2
2023/01/17 00:17:17;;;;;;;14.10;10.20;;;;;;;1.83;100.00;96768.11;436125;1255;142024;-65
2023/01/17 01:39:34;;;;;;;14.30;11.40;;;;;;;1.56;100.00;96717.78;433818;1254;145429;-64
2023/01/17 01:49:40;;;;;;;16.50;13.00;;;;;;;1.52;100.00;96708.75;433626;1255;143798;-65
2023/01/17 01:59:54;;;;;;;17.20;13.30;;;;;;;1.51;100.00;96696.79;435804;1252;201020;-65
2023/01/17 02:10:00;;;;;;;19.00;14.50;;;;;;;1.52;100.00;96687.92;434627;1250;145080;-64
2023/01/17 02:20:33;;;;;;;16.70;13.30;;;;;;;1.52;100.00;96682.05;450680;1252;142660;-65
2023/01/17 02:30:42;;;;;;;20.50;15.60;;;;;;;1.55;100.00;96687.36;450011;1251;143804;-65
2023/01/17 02:40:53;;;;;;;18.10;14.70;;;;;;;1.57;100.00;96685.30;450669;1251;143320;-65
2023/01/17 02:51:11;;;;;;;13.90;11.80;;;;;;;1.59;100.00;96670.82;450740;1254;143354;-66
2023/01/17 03:01:26;;;;;;;15.60;10.80;;;;;;;1.60;100.00;96658.90;450152;1251;213936;-65
2023/01/17 03:11:32;;;;;;;15.50;12.30;;;;;;;1.49;100.00;96650.74;450680;1250;142429;-65
2023/01/17 03:21:38;;;;;;;18.60;13.50;;;;;;;1.29;100.00;96652.02;449872;1251;143639;-65
2023/01/17 03:31:44;;;;;;;15.30;11.10;;;;;;;1.16;100.00;96658.99;450493;1251;170447;-65
2023/01/17 03:41:49;;;;;;;14.10;11.30;;;;;;;1.10;100.00;96663.14;450718;1251;141742;-64
2023/01/17 03:51:55;;;;;;;13.70;11.30;;;;;;;1.01;100.00;96664.89;449912;1250;142944;-64
2023/01/17 04:02:02;;;;;;;16.90;13.10;;;;;;;1.16;100.00;96659.48;447671;1255;144938;-66
2023/01/17 04:12:08;;;;;;;12.30;9.50;;;;;;;1.39;100.00;96650.41;450567;1251;142620;-65
2023/01/17 04:22:14;;;;;;;13.20;10.60;;;;;;;1.55;100.00;96649.20;449828;1251;203585;-65
2023/01/17 04:32:20;;;;;;;16.60;11.70;;;;;;;1.64;100.00;96632.58;450231;1251;143863;-65
2023/01/17 04:42:26;;;;;;;13.60;10.10;;;;;;;1.41;100.00;96639.23;446383;1251;142567;-65
2023/01/17 04:52:31;;;;;;;13.40;10.80;;;;;;;1.10;100.00;96648.40;450666;1251;142268;-65
2023/01/17 05:02:37;;;;;;;13.40;9.90;;;;;;;0.84;100.00;96653.52;450561;1251;141946;-65
2023/01/17 05:12:43;;;;;;;12.00;8.50;;;;;;;0.63;100.00;96657.02;449969;1250;142516;-68
2023/01/17 05:22:54;;;;;;;14.90;10.50;;;;;;;0.44;100.00;96663.88;450652;1250;142238;-65
2023/01/17 05:33:00;;;;;;;11.20;7.70;;;;;;;0.31;100.00;96670.05;450712;1251;144887;-65
2023/01/17 05:43:06;;;;;;;8.00;7.20;;;;;;;0.26;100.00;96680.92;449841;1251;143990;-66
2023/01/17 05:53:13;;;;;;;8.30;7.20;;;;;;;0.25;100.00;96675.12;450473;1251;141998;-66
2023/01/17 06:03:19;;;;;;;8.30;6.30;;;;;;;0.23;100.00;96683.89;449486;1251;142005;-66
2023/01/17 06:13:25;;;;;;;6.70;6.10;;;;;;;0.27;100.00;96688.95;450305;1251;142371;-66
2023/01/17 06:23:31;;;;;;;7.90;5.60;;;;;;;0.32;100.00;96706.84;436950;1251;185898;-66
2023/01/17 06:33:37;;;;;;;6.80;5.00;;;;;;;0.22;100.00;96719.92;446483;1251;143078;-65
2023/01/17 06:43:43;;;;;;;6.40;5.00;;;;;;;0.14;100.00;96713.90;434994;1254;143038;-65
2023/01/17 06:53:50;;;;;;;6.20;5.60;;;;;;;0.11;100.00;96722.85;436773;1251;142032;-65
2023/01/17 07:03:56;;;;;;;6.00;5.10;;;;;;;0.20;100.00;96739.30;433926;1251;142790;-65
2023/01/17 07:14:02;;;;;;;7.00;5.60;;;;;;;0.39;100.00;96731.69;434969;1254;142910;-66
2023/01/17 07:24:09;;;;;;;6.50;5.40;;;;;;;0.62;100.00;96731.34;433457;1251;141767;-65
2023/01/17 07:34:14;;;;;;;6.30;5.70;;;;;;;0.82;100.00;96739.58;436273;1251;142293;-64
2023/01/17 07:44:20;;;;;;;5.30;4.70;;;;;;;0.96;100.00;96748.27;433772;1251;141911;-65
2023/01/17 07:54:26;;;;;;;8.40;6.90;;;;;;;1.06;99.91;96754.61;435560;1251;142340;-65
2023/01/17 08:04:34;;;;;;;12.50;7.60;;;;;;;1.18;99.70;96756.34;434420;1254;141279;-66
2023/01/17 08:14:39;;;;;;;7.80;6.90;;;;;;;1.39;99.60;96757.13;434325;1251;142757;-65
2023/01/17 08:24:46;;;;;;;9.10;6.50;;;;;;;1.69;99.23;96776.20;433456;1251;142113;-66
2023/01/17 08:34:52;;;;;;;9.20;7.30;;;;;;;1.99;98.60;96786.55;434843;1254;142026;-64
2023/01/17 08:44:58;;;;;;;7.20;5.80;;;;;;;2.18;98.04;96791.20;436640;1251;141847;-65
2023/01/17 08:55:05;;;;;;;10.40;6.20;;;;;;;2.32;97.35;96793.48;436018;1252;146579;-65
2023/01/17 09:05:12;;;;;;;6.20;5.40;;;;;;;2.46;97.03;96797.59;434773;1251;142863;-66
2023/01/17 09:15:19;;;;;;;;;;;;;;;2.57;96.44;96802.45;434143;1252;146441;-66
2023/01/17 09:25:25;;;;;;;7.80;5.50;;;;;;;2.71;96.16;96817.49;435027;1251;128699;-66
2023/01/17 09:35:31;;;;;;;6.30;5.50;;;;;;;2.78;95.21;96828.55;434994;1252;142323;-65
2023/01/17 09:45:37;;;;;;;10.30;6.90;;;;;;;2.79;94.67;96824.33;433438;1251;192808;-66
2023/01/17 09:55:48;;;;;;;7.70;6.00;;;;;;;2.87;94.39;96824.94;434365;1250;143871;-67
2023/01/17 10:06:04;;;;;;;11.10;6.60;;;;;;;3.01;94.30;96826.61;436879;1254;146857;-65
2023/01/17 10:16:24;;;;;;;7.20;5.50;;;;;;;3.17;93.77;96833.01;434562;1251;142302;-65
2023/01/17 10:26:32;;;;;;;8.30;5.20;;;;;;;3.37;93.31;96831.24;435333;1252;142000;-65
2023/01/17 10:36:41;;;;;;;7.00;5.60;;;;;;;3.65;92.89;96840.98;433279;1254;143546;-64
2023/01/17 10:46:55;;;;;;;5.70;5.00;;;;;;;3.88;92.22;96850.83;436974;1251;141057;-66
2023/01/17 10:57:01;;;;;;;8.40;6.00;;;;;;;4.14;91.85;96855.10;437350;1251;141811;-67
2023/01/17 11:07:16;;;;;;;6.40;4.80;;;;;;;4.40;91.00;96853.74;435463;1252;142013;-66
2023/01/17 11:17:22;;;;;;;5.90;5.10;;;;;;;4.68;90.63;96842.60;433916;1253;141281;-65
2023/01/17 11:27:30;;;;;;;4.90;4.20;;;;;;;5.00;89.26;96836.89;432734;1252;140577;-65
2023/01/17 11:37:37;;;;;;;8.20;5.00;;;;;;;5.13;88.13;96836.70;434320;1252;142489;-66
2023/01/17 11:47:43;;;;;;;5.00;3.50;;;;;;;4.88;87.13;96834.43;436833;1251;145166;-65
2023/01/17 11:57:51;;;;;;;6.10;4.50;;;;;;;4.64;86.76;96834.91;435779;1252;144354;-66
2023/01/17 12:08:06;;;;;;;4.80;3.40;;;;;;;4.59;86.49;96835.17;435056;1251;141952;-67
2023/01/17 12:18:30;;;;;;;4.40;4.00;;;;;;;4.56;86.19;96842.69;436456;1252;147941;-64
2023/01/17 12:29:10;;;;;;;7.30;4.60;;;;;;;4.54;85.91;96847.52;437289;1251;208747;-64
2023/01/17 12:39:20;;;;;;;6.30;4.80;;;;;;;4.55;85.75;96845.17;438025;1252;141820;-66
2023/01/17 12:49:38;;;;;;;5.20;3.50;;;;;;;4.56;85.40;96849.24;441124;1252;142011;-65
2023/01/17 12:59:50;;;;;;;5.70;4.40;;;;;;;4.58;85.00;96851.15;433442;1252;143289;-64
2023/01/17 13:10:02;;;;;;;3.80;3.50;;;;;;;4.58;84.56;96858.42;435625;1251;142288;-66
2023/01/17 13:20:18;;;;;;;4.80;4.20;;;;;;;4.57;84.03;96867.89;435387;1251;140828;-65
2023/01/17 13:30:42;;;;;;;5.30;3.90;;;;;;;4.53;83.87;96865.77;434161;1251;144915;-65
2023/01/17 13:40:53;;;;;;;6.90;3.60;;;;;;;4.48;83.50;96871.76;439240;1251;141344;-65
2023/01/17 13:51:02;;;;;;;6.80;5.00;;;;;;;4.39;83.32;96878.90;434660;1255;141775;-64
2023/01/17 14:01:12;;;;;;;8.50;3.60;;;;;;;4.27;83.08;96891.48;433347;1254;141787;-68
2023/01/17 14:11:18;;;;;;;6.20;4.10;;;;;;;4.15;82.91;96907.87;436012;1255;150732;-66
2023/01/17 14:21:27;;;;;;;4.20;3.50;;;;;;;3.99;82.99;96927.83;435241;1251;142970;-65
2023/01/17 14:31:33;;;;;;;7.10;3.60;;;;;;;3.83;82.55;96932.84;437125;1252;141056;-65
2023/01/17 14:41:39;;;;;;;5.90;4.50;;;;;;;3.56;83.01;96948.82;433981;1255;140867;-65
2023/01/17 14:51:57;;;;;;;14.50;10.60;;;;;;;3.20;83.08;96955.54;433053;1254;143599;-65
2023/01/17 15:02:04;;;;;;;18.60;12.20;;;;;;;2.86;83.62;96985.31;446511;1251;143593;-67
2023/01/17 15:12:14;;;;;;;17.30;12.00;;;;;;;2.85;84.22;97025.02;450356;1251;142341;-65
2023/01/17 15:22:22;;;;;;;23.30;14.30;;;;;;;2.76;84.31;97048.45;449804;1251;146594;-67
2023/01/17 15:32:30;;;;;;;31.90;17.90;;;;;;;2.87;84.74;97070.10;450157;1251;141784;-66
2023/01/17 15:42:38;;;;;;;44.30;27.00;;;;;;;2.92;84.76;97072.37;449522;1250;142742;-65
2023/01/17 15:52:51;;;;;;;37.80;22.40;;;;;;;2.58;84.48;97086.33;450318;1252;141536;-68
2023/01/17 16:02:57;;;;;;;27.70;17.20;;;;;;;2.20;84.94;97089.88;450291;1252;144545;-68
2023/01/17 16:13:04;;;;;;;26.10;16.70;;;;;;;1.91;85.67;97092.05;449512;1252;142557;-67
2023/01/17 16:23:09;;;;;;;;;;;;;;;1.96;86.23;97092.03;450463;1251;143324;-67
2023/01/17 16:33:16;;;;;;;26.60;17.30;;;;;;;2.11;85.93;97082.34;450682;1251;169746;-68
2023/01/17 16:43:22;;;;;;;23.40;15.00;;;;;;;2.08;85.76;97081.53;442257;1254;208747;-66
2023/01/17 16:53:28;;;;;;;36.30;22.00;;;;;;;1.73;85.46;97082.19;447483;1251;145780;-67
2023/01/17 17:03:34;;;;;;;33.30;21.80;;;;;;;1.37;85.70;97081.63;449758;1251;142606;-67
2023/01/17 17:13:40;;;;;;;31.70;21.60;;;;;;;1.18;85.87;97083.63;450545;1251;142965;-68
2023/01/17 17:23:49;;;;;;;25.90;17.50;;;;;;;1.13;85.82;97087.58;445787;1252;146304;-67
2023/01/17 17:33:59;;;;;;;27.20;17.30;;;;;;;1.08;85.67;97089.42;438455;1251;143124;-67
2023/01/17 17:44:05;;;;;;;25.60;17.60;;;;;;;0.88;85.73;97080.19;450401;1252;143036;-67
2023/01/17 17:54:12;;;;;;;21.30;14.40;;;;;;;0.74;85.88;97078.49;450492;1251;142085;-67
2023/01/17 18:04:20;;;;;;;30.50;19.90;;;;;;;0.56;85.95;97082.91;449935;1251;198193;-67
2023/01/17 18:14:26;;;;;;;27.00;17.60;;;;;;;0.33;86.16;97096.73;450538;1251;142820;-67
2023/01/17 18:24:32;;;;;;;34.30;19.10;;;;;;;0.16;86.74;97093.64;443490;1251;142691;-67
2023/01/17 18:34:40;;;;;;;36.80;21.70;;;;;;;-0.03;86.80;97102.17;450346;1251;142507;-66
2023/01/17 18:44:46;;;;;;;34.20;23.20;;;;;;;-0.22;87.30;97120.85;450264;1252;143033;-66
2023/01/17 18:54:52;;;;;;;41.90;24.00;;;;;;;-0.39;87.66;97134.23;449608;1251;144831;-67
2023/01/17 19:04:58;;;;;;;34.10;21.50;;;;;;;-0.54;87.95;97165.37;450349;1252;142946;-66
2023/01/17 19:15:04;;;;;;;40.90;25.90;;;;;;;-0.75;88.27;97172.00;450402;1251;142646;-67
2023/01/17 19:25:11;;;;;;;38.00;23.40;;;;;;;-0.91;88.31;97190.61;449616;1250;143781;-67
2023/01/17 19:35:16;;;;;;;;;;;;;;;-1.19;88.46;97209.16;449469;1253;143585;-67
2023/01/17 19:45:22;;;;;;;48.30;30.00;;;;;;;-1.33;89.33;97216.94;449828;1252;130150;-68
2023/01/17 19:55:27;;;;;;;;;;;;;;;-1.36;89.98;97217.95;450358;1251;142620;-66
2023/01/17 20:05:34;;;;;;;36.60;23.60;;;;;;;-1.30;90.39;97216.45;446782;1251;128896;-70
2023/01/17 20:15:40;;;;;;;35.00;22.90;;;;;;;-1.36;90.39;97214.15;443860;1254;142921;-67
2023/01/17 20:25:57;;;;;;;31.60;20.00;;;;;;;-1.54;90.45;97202.77;433930;1255;143753;-66
2023/01/17 20:36:06;;;;;;;36.60;23.20;;;;;;;-1.67;90.89;97203.13;450348;1251;141815;-66
2023/01/17 20:46:16;;;;;;;35.60;24.30;;;;;;;-1.68;91.14;97202.27;449554;1252;142427;-66
2023/01/17 20:56:23;;;;;;;54.50;32.70;;;;;;;-1.67;91.56;97215.64;447037;1252;144075;-66
2023/01/17 21:06:29;;;;;;;53.90;32.70;;;;;;;-1.60;92.10;97210.43;449029;1254;202276;-66
2023/01/17 21:16:34;;;;;;;;;;;;;;;-1.47;92.01;97195.02;445908;1251;145352;-64
2023/01/17 21:26:43;;;;;;;49.60;31.80;;;;;;;-1.50;92.20;97196.70;450441;1252;128900;-66
2023/01/17 21:36:49;;;;;;;59.30;35.70;;;;;;;-1.47;92.44;97188.66;444446;1251;142924;-66
2023/01/17 21:46:58;;;;;;;42.90;30.70;;;;;;;-1.48;92.58;97177.21;435461;1255;143073;-67
2023/01/17 22:07:28;;;;;;;50.10;33.90;;;;;;;-1.25;93.10;97180.31;449676;1251;196965;-67
2023/01/17 22:17:37;;;;;;;46.80;34.00;;;;;;;-1.22;92.65;97195.39;448601;1252;144342;-66
2023/01/17 22:27:43;;;;;;;46.40;30.60;;;;;;;-1.19;92.98;97191.11;449391;1251;144497;-68
2023/01/17 22:37:49;;;;;;;45.80;31.30;;;;;;;-1.16;92.81;97195.41;444224;1251;142329;-66
2023/01/17 22:47:55;;;;;;;39.70;28.30;;;;;;;-1.06;93.21;97184.55;441438;1251;144538;-66
2023/01/17 22:58:01;;;;;;;38.80;26.50;;;;;;;-0.96;92.80;97178.85;432678;1254;143623;-66
2023/01/17 23:08:07;;;;;;;36.30;24.10;;;;;;;-0.98;92.90;97186.56;441570;1250;143428;-65
2023/01/17 23:28:37;;;;;;;36.60;23.60;;;;;;;-0.89;93.00;97187.22;441948;1251;142259;-66
2023/01/17 23:38:43;;;;;;;36.40;23.00;;;;;;;-0.83;92.88;97172.11;444497;1251;142579;-65
2023/01/17 23:48:49;;;;;;;35.10;23.40;;;;;;;-0.76;93.04;97154.90;433222;1251;144152;-66
2023/01/17 23:58:55;;;;;;;35.40;24.40;;;;;;;-0.73;93.10;97150.63;436867;1251;142212;-66
